Time;durP1;ratioP1;P1;durP2;ratioP2;P2;SDS_P1;SDS_P2;PMS_P1;PMS_P2;Temp;Humidity;BMP_temperature;BMP_pressure;BME280_temperature;BME280_humidity;BME280_pressure;Samples;Min_cycle;Max_cycle;Signal;HPM_P1;HPM_P2
2023/04/08 00:02:04;;;;;;;21.33;12.03;;;;;;;6.77;100.00;102457.00;5046822;28;20200;-65
2023/04/08 00:04:30;;;;;;;18.63;11.13;;;;;;;6.78;100.00;102451.97;5013857;28;20228;-65
2023/04/08 00:06:56;;;;;;;18.27;11.40;;;;;;;6.80;100.00;102449.53;5047525;28;20948;-65
2023/04/08 00:09:22;;;;;;;17.53;11.27;;;;;;;6.80;100.00;102441.91;5050960;28;20193;-65
2023/04/08 00:11:47;;;;;;;17.10;12.03;;;;;;;6.77;100.00;102455.31;5049548;28;20194;-65
2023/04/08 00:14:13;;;;;;;19.63;12.03;;;;;;;6.75;100.00;102449.28;5047607;28;20220;-65
2023/04/08 00:16:38;;;;;;;18.77;11.83;;;;;;;6.75;100.00;102444.19;5045787;28;20300;-65
2023/04/08 00:19:05;;;;;;;19.90;12.43;;;;;;;6.76;100.00;102452.69;5045180;28;20198;-65
2023/04/08 00:21:31;;;;;;;18.37;11.90;;;;;;;6.79;100.00;102451.22;5045342;28;20198;-65
2023/04/08 00:23:57;;;;;;;22.50;11.80;;;;;;;6.74;100.00;102447.53;5051166;28;20244;-65
2023/04/08 00:26:22;;;;;;;22.00;13.27;;;;;;;6.69;100.00;102448.91;5048759;28;20216;-64
2023/04/08 00:28:48;;;;;;;20.77;12.83;;;;;;;6.69;100.00;102455.66;5013517;28;20190;-65
2023/04/08 00:31:13;;;;;;;21.13;12.40;;;;;;;6.72;100.00;102450.75;5047462;28;20185;-65
2023/04/08 00:33:39;;;;;;;22.70;13.90;;;;;;;6.76;100.00;102456.13;5044868;28;20186;-65
2023/04/08 00:36:04;;;;;;;22.03;13.30;;;;;;;6.73;100.00;102452.53;5042119;28;20202;-65
2023/04/08 00:38:30;;;;;;;26.27;13.17;;;;;;;6.76;100.00;102457.78;5048506;28;20201;-66
2023/04/08 00:40:57;;;;;;;20.80;12.83;;;;;;;6.80;100.00;102458.06;5050085;28;20185;-65
2023/04/08 00:43:22;;;;;;;22.67;13.07;;;;;;;6.77;100.00;102457.88;5046357;28;20209;-65
2023/04/08 00:45:48;;;;;;;22.20;12.70;;;;;;;6.78;100.00;102453.66;5031720;28;20686;-65
2023/04/08 00:48:14;;;;;;;19.53;11.77;;;;;;;6.79;100.00;102457.97;5026317;28;20885;-65
2023/04/08 00:50:41;;;;;;;20.67;11.77;;;;;;;6.79;100.00;102452.88;5043733;28;20248;-65
2023/04/08 00:53:07;;;;;;;22.93;13.37;;;;;;;6.82;100.00;102458.16;5031895;28;20227;-65
2023/04/08 00:55:32;;;;;;;20.90;11.87;;;;;;;6.81;100.00;102451.31;5047940;28;20213;-65
2023/04/08 00:57:58;;;;;;;23.10;11.60;;;;;;;6.80;100.00;102452.97;5047214;28;20205;-65
2023/04/08 01:00:23;;;;;;;17.00;10.77;;;;;;;6.81;100.00;102452.19;5026016;28;20201;-65
2023/04/08 01:03:08;;;;;;;21.10;11.47;;;;;;;6.80;100.00;102449.53;5030955;28;20267;-65
2023/04/08 01:06:01;;;;;;;19.10;11.80;;;;;;;6.81;100.00;102452.19;5025668;28;20237;-65
2023/04/08 01:08:30;;;;;;;17.03;11.17;;;;;;;6.81;100.00;102452.19;5047898;28;20217;-65
2023/04/08 01:11:00;;;;;;;17.17;10.93;;;;;;;6.77;100.00;102451.91;5035265;28;20193;-65
2023/04/08 01:13:29;;;;;;;22.30;11.43;;;;;;;6.78;100.00;102439.25;5028388;28;20285;-65
2023/04/08 01:15:55;;;;;;;22.47;11.80;;;;;;;6.80;100.00;102445.34;5031908;28;20245;-65
2023/04/08 01:18:21;;;;;;;19.70;12.37;;;;;;;6.80;100.00;102447.00;5029244;28;20237;-64
2023/04/08 01:20:49;;;;;;;19.13;11.37;;;;;;;6.79;100.00;102450.31;5032171;28;20198;-65
2023/04/08 01:23:23;;;;;;;17.80;11.13;;;;;;;6.79;100.00;102446.13;5049187;28;20221;-66
2023/04/08 01:25:52;;;;;;;19.27;11.93;;;;;;;6.76;100.00;102451.03;5031156;28;20690;-65
2023/04/08 01:28:20;;;;;;;19.40;11.43;;;;;;;6.80;100.00;102439.34;5025578;28;20187;-66
2023/04/08 01:30:47;;;;;;;21.50;10.57;;;;;;;6.79;100.00;102443.59;5048299;28;20201;-66
2023/04/08 01:33:17;;;;;;;19.77;11.60;;;;;;;6.79;100.00;102443.59;5026107;28;20200;-66
2023/04/08 01:35:44;;;;;;;21.77;12.17;;;;;;;6.80;100.00;102442.78;5030389;28;20217;-66
2023/04/08 01:38:14;;;;;;;18.47;11.17;;;;;;;6.82;100.00;102446.28;5032089;28;20200;-66
2023/04/08 01:40:41;;;;;;;20.03;11.03;;;;;;;6.83;100.00;102443.00;5028608;28;20220;-66
2023/04/08 01:43:09;;;;;;;18.47;11.70;;;;;;;6.76;100.00;102440.84;5048794;28;20192;-65
2023/04/08 01:45:37;;;;;;;21.57;11.80;;;;;;;6.76;100.00;102442.50;5044766;28;20218;-65
2023/04/08 01:48:04;;;;;;;18.50;11.40;;;;;;;6.78;100.00;102436.72;5027545;28;20201;-65
2023/04/08 01:50:30;;;;;;;20.57;11.60;;;;;;;6.79;100.00;102425.75;5026976;28;20187;-66
2023/04/08 01:52:59;;;;;;;22.00;12.23;;;;;;;6.79;100.00;102428.31;5032135;28;20190;-65
2023/04/08 01:55:26;;;;;;;21.87;11.70;;;;;;;6.75;100.00;102418.72;5030057;28;20271;-66
2023/04/08 01:57:53;;;;;;;19.03;12.40;;;;;;;6.75;100.00;102425.47;5031496;28;20773;-66
2023/04/08 02:00:24;;;;;;;22.43;12.87;;;;;;;6.72;100.00;102420.22;5027581;28;20190;-66
2023/04/08 02:02:51;;;;;;;19.43;12.53;;;;;;;6.71;100.00;102421.88;5045135;28;20300;-66
2023/04/08 02:05:18;;;;;;;22.60;11.77;;;;;;;6.75;100.00;102422.94;5042928;28;20213;-65
2023/04/08 02:07:45;;;;;;;20.73;12.03;;;;;;;6.78;100.00;102415.50;5031521;28;20189;-66
2023/04/08 02:10:11;;;;;;;20.40;11.57;;;;;;;6.76;100.00;102424.69;5031900;28;21008;-66
2023/04/08 02:12:37;;;;;;;18.57;11.20;;;;;;;6.78;100.00;102420.56;5025435;28;20289;-66
2023/04/08 02:15:08;;;;;;;19.93;12.00;;;;;;;6.78;100.00;102433.31;5031180;28;20308;-66
2023/04/08 02:17:49;;;;;;;20.37;12.13;;;;;;;6.72;100.00;102423.63;5043540;28;20270;-66
2023/04/08 02:20:19;;;;;;;22.07;12.07;;;;;;;6.74;100.00;102427.16;5047516;28;20186;-66
2023/04/08 02:23:08;;;;;;;18.03;11.47;;;;;;;6.76;100.00;102432.31;5043711;28;20277;-67
2023/04/08 02:25:39;;;;;;;20.93;11.30;;;;;;;6.76;100.00;102432.31;5022774;28;20213;-66
2023/04/08 02:28:08;;;;;;;18.20;10.70;;;;;;;6.77;100.00;102424.78;5029478;28;20224;-66
2023/04/08 02:30:37;;;;;;;16.90;11.20;;;;;;;6.75;100.00;102425.47;5045942;28;20205;-66
2023/04/08 02:33:04;;;;;;;17.47;10.93;;;;;;;6.68;100.00;102423.38;5027164;28;20193;-66
2023/04/08 02:35:30;;;;;;;21.27;11.90;;;;;;;6.69;100.00;102427.66;5046727;28;20288;-65
2023/04/08 02:37:55;;;;;;;17.53;11.07;;;;;;;6.73;100.00;102427.91;5046745;28;20656;-65
2023/04/08 02:40:26;;;;;;;19.30;11.53;;;;;;;6.67;100.00;102431.75;5038175;28;20224;-65
2023/04/08 02:42:52;;;;;;;14.90;10.77;;;;;;;6.66;100.00;102430.00;5028283;28;20212;-65
2023/04/08 02:45:18;;;;;;;17.27;10.20;;;;;;;6.70;100.00;102442.13;5022153;28;20683;-65
2023/04/08 02:47:43;;;;;;;15.80;10.67;;;;;;;6.74;100.00;102444.09;5047370;28;20548;-65
2023/04/08 02:50:09;;;;;;;15.80;10.23;;;;;;;6.71;100.00;102441.34;5047414;28;20277;-65
2023/04/08 02:52:34;;;;;;;16.03;9.53;;;;;;;6.66;100.00;102442.75;5044913;28;20204;-66
2023/04/08 02:55:00;;;;;;;18.37;11.07;;;;;;;6.66;100.00;102443.63;5028343;28;20209;-66
2023/04/08 02:57:25;;;;;;;14.17;9.87;;;;;;;6.68;100.00;102449.69;5047260;28;20224;-66
2023/04/08 02:59:51;;;;;;;15.40;10.37;;;;;;;6.64;100.00;102445.19;5045533;28;20240;-66
2023/04/08 03:02:16;;;;;;;15.70;11.03;;;;;;;6.64;100.00;102441.78;5043528;28;20229;-66
2023/04/08 03:04:42;;;;;;;18.03;10.73;;;;;;;6.61;100.00;102439.94;5045307;28;20754;-66
2023/04/08 03:07:07;;;;;;;17.73;10.90;;;;;;;6.63;100.00;102445.97;5047421;28;20193;-65
2023/04/08 03:09:32;;;;;;;16.03;10.27;;;;;;;6.56;100.00;102446.41;5048286;28;20285;-66
2023/04/08 03:11:58;;;;;;;18.63;10.87;;;;;;;6.64;100.00;102450.28;5047143;28;20217;-65
2023/04/08 03:14:23;;;;;;;18.33;12.43;;;;;;;6.59;100.00;102453.34;5045287;28;20687;-66
2023/04/08 03:16:49;;;;;;;21.47;12.27;;;;;;;6.63;100.00;102452.75;5044702;28;20240;-66
2023/04/08 03:19:15;;;;;;;15.00;10.17;;;;;;;6.68;100.00;102452.22;5048250;28;20203;-66
2023/04/08 03:21:40;;;;;;;16.17;10.53;;;;;;;6.66;100.00;102451.25;5043830;28;20205;-66
2023/04/08 03:24:05;;;;;;;18.03;11.00;;;;;;;6.65;100.00;102456.25;5030732;28;20197;-66
2023/04/08 03:26:31;;;;;;;18.27;11.57;;;;;;;6.58;100.00;102457.53;5046988;28;20698;-66
2023/04/08 03:28:56;;;;;;;20.13;11.37;;;;;;;6.63;100.00;102452.75;5047217;28;20730;-66
2023/04/08 03:31:22;;;;;;;19.53;11.00;;;;;;;6.65;100.00;102456.25;5046881;28;20273;-66
2023/04/08 03:33:47;;;;;;;16.90;10.83;;;;;;;6.64;100.00;102457.06;5048163;28;20181;-66
2023/04/08 03:36:13;;;;;;;16.70;11.07;;;;;;;6.69;100.00;102463.28;5030309;28;20221;-65
2023/04/08 03:38:38;;;;;;;18.37;11.00;;;;;;;6.68;100.00;102459.84;5045716;28;20666;-66
2023/04/08 03:41:03;;;;;;;17.93;10.77;;;;;;;6.69;100.00;102456.56;5048015;28;20185;-66
2023/04/08 03:43:30;;;;;;;22.00;12.70;;;;;;;6.64;100.00;102464.69;5046091;28;20189;-66
2023/04/08 03:45:55;;;;;;;22.73;13.27;;;;;;;6.64;100.00;102460.44;5043762;28;20278;-67
2023/04/08 03:48:21;;;;;;;23.90;13.50;;;;;;;6.57;100.00;102476.16;5047622;28;20193;-66
2023/04/08 03:50:47;;;;;;;24.93;13.50;;;;;;;6.51;100.00;102464.72;5048031;28;20614;-66
2023/04/08 03:53:12;;;;;;;26.00;14.17;;;;;;;6.61;100.00;102469.56;5044798;28;20193;-65
2023/04/08 03:55:38;;;;;;;27.67;14.27;;;;;;;6.57;100.00;102477.81;5043864;28;20233;-65
2023/04/08 03:58:04;;;;;;;23.87;14.07;;;;;;;6.57;100.00;102470.16;5046852;28;20760;-66
2023/04/08 04:00:29;;;;;;;30.63;15.73;;;;;;;6.52;100.00;102469.91;5044320;28;20193;-66
2023/04/08 04:02:55;;;;;;;26.43;14.37;;;;;;;6.54;100.00;102473.41;5045963;28;20277;-66
2023/04/08 04:05:21;;;;;;;28.60;15.30;;;;;;;6.54;100.00;102472.53;5046554;28;20244;-66
2023/04/08 04:07:46;;;;;;;31.50;15.97;;;;;;;6.50;100.00;102484.16;5029820;28;20553;-66
2023/04/08 04:10:12;;;;;;;28.37;15.97;;;;;;;6.57;100.00;102483.78;5048153;28;20197;-66
2023/04/08 04:12:37;;;;;;;32.43;15.87;;;;;;;6.55;100.00;102480.28;5044443;28;20233;-66
2023/04/08 04:15:03;;;;;;;29.30;16.77;;;;;;;6.56;100.00;102489.66;5046667;28;20206;-66
2023/04/08 04:17:29;;;;;;;33.70;16.17;;;;;;;6.56;100.00;102492.22;5046708;28;20214;-66
2023/04/08 04:19:54;;;;;;;28.20;16.73;;;;;;;6.58;100.00;102492.31;5051525;28;20549;-66
2023/04/08 04:22:20;;;;;;;30.47;16.83;;;;;;;6.52;100.00;102492.81;5049281;28;20198;-66
2023/04/08 04:24:48;;;;;;;34.33;16.57;;;;;;;6.56;100.00;102499.84;5051186;28;20587;-65
2023/04/08 04:27:17;;;;;;;29.67;16.63;;;;;;;6.51;100.00;102505.41;5024166;28;20183;-66
2023/04/08 04:29:43;;;;;;;30.67;17.67;;;;;;;6.53;100.00;102506.38;5044442;28;20335;-66
2023/04/08 04:32:08;;;;;;;31.43;17.30;;;;;;;6.45;100.00;102517.78;5028445;28;20276;-66
2023/04/08 04:34:34;;;;;;;37.07;18.53;;;;;;;6.41;100.00;102511.59;5050845;28;20258;-65
2023/04/08 04:36:59;;;;;;;31.83;16.57;;;;;;;6.51;100.00;102506.31;5047297;28;20220;-65
2023/04/08 04:39:25;;;;;;;26.93;15.80;;;;;;;6.48;100.00;102506.13;5049667;28;20264;-65
2023/04/08 04:41:50;;;;;;;29.60;16.97;;;;;;;6.49;100.00;102504.47;5046833;28;20209;-66
2023/04/08 04:44:16;;;;;;;30.67;16.60;;;;;;;6.52;100.00;102502.97;5050123;28;20293;-65
2023/04/08 04:46:41;;;;;;;28.63;16.47;;;;;;;6.56;100.00;102506.59;5047072;28;20204;-66
2023/04/08 04:49:07;;;;;;;31.30;16.90;;;;;;;6.58;100.00;102503.34;5046996;28;20546;-66
2023/04/08 04:51:33;;;;;;;30.97;16.97;;;;;;;6.58;100.00;102503.34;5050425;28;20185;-66
2023/04/08 04:53:58;;;;;;;32.00;17.73;;;;;;;6.61;100.00;102512.84;5050397;28;20560;-65
2023/04/08 04:56:25;;;;;;;34.43;17.83;;;;;;;6.61;100.00;102521.38;5032402;28;20213;-66
2023/04/08 04:58:50;;;;;;;33.17;18.10;;;;;;;6.59;100.00;102514.41;5050058;28;20277;-65
2023/04/08 05:01:16;;;;;;;33.17;17.47;;;;;;;6.60;100.00;102519.59;5050179;28;20601;-66
2023/04/08 05:03:41;;;;;;;31.80;17.53;;;;;;;6.59;100.00;102522.06;5048670;28;20204;-66
2023/04/08 05:06:07;;;;;;;33.30;17.60;;;;;;;6.62;100.00;102517.13;5050599;28;20213;-66
2023/04/08 05:08:32;;;;;;;31.17;17.57;;;;;;;6.63;100.00;102519.78;5050520;28;20197;-65
2023/04/08 05:11:00;;;;;;;27.00;16.60;;;;;;;6.55;100.00;102522.66;5048778;28;20207;-65
2023/04/08 05:13:27;;;;;;;25.50;16.60;;;;;;;6.58;100.00;102526.25;5029639;28;20694;-66
2023/04/08 05:15:52;;;;;;;26.60;17.27;;;;;;;6.61;100.00;102523.00;5049257;28;20248;-66
2023/04/08 05:18:18;;;;;;;27.07;17.27;;;;;;;6.51;100.00;102528.31;5050836;28;20221;-65
2023/04/08 05:20:44;;;;;;;32.33;18.47;;;;;;;6.45;100.00;102528.81;5049169;28;20253;-63
2023/04/08 05:23:09;;;;;;;28.33;16.97;;;;;;;6.50;100.00;102534.19;5050583;28;20205;-66
2023/04/08 05:25:35;;;;;;;28.07;17.37;;;;;;;6.46;100.00;102529.69;5050063;28;20226;-66
2023/04/08 05:28:00;;;;;;;28.33;17.77;;;;;;;6.43;100.00;102539.69;5049748;28;20277;-66
2023/04/08 05:30:26;;;;;;;27.80;16.93;;;;;;;6.42;100.00;102543.91;5048408;28;20863;-66
2023/04/08 05:32:51;;;;;;;27.00;17.93;;;;;;;6.44;100.00;102552.50;5050551;28;20209;-66
2023/04/08 05:35:17;;;;;;;31.03;18.07;;;;;;;6.44;100.00;102555.03;5050299;28;20220;-66
2023/04/08 05:37:42;;;;;;;31.00;18.60;;;;;;;6.41;100.00;102557.38;5047674;28;20213;-66
2023/04/08 05:40:08;;;;;;;30.03;18.40;;;;;;;6.42;100.00;102566.78;5050649;28;20642;-66
2023/04/08 05:42:33;;;;;;;27.53;17.33;;;;;;;6.42;100.00;102561.72;5049701;28;20239;-66
2023/04/08 05:44:59;;;;;;;27.07;17.57;;;;;;;6.40;100.00;102557.31;5049155;28;20746;-66
2023/04/08 05:47:24;;;;;;;30.07;18.43;;;;;;;6.41;100.00;102565.00;5030764;28;20189;-66
2023/04/08 05:49:50;;;;;;;31.40;17.90;;;;;;;6.36;100.00;102570.63;5050016;28;20198;-66
2023/04/08 05:52:15;;;;;;;27.83;18.17;;;;;;;6.29;100.00;102571.00;5050155;28;20205;-66
2023/04/08 05:54:44;;;;;;;25.63;17.07;;;;;;;6.36;100.00;102568.94;5049866;28;20201;-66
2023/04/08 05:57:10;;;;;;;26.43;17.63;;;;;;;6.35;100.00;102577.34;5025610;28;20224;-66
2023/04/08 05:59:36;;;;;;;30.23;18.33;;;;;;;6.31;100.00;102580.47;5047857;28;20193;-66
2023/04/08 06:02:01;;;;;;;29.47;17.90;;;;;;;6.37;100.00;102572.38;5049599;28;20288;-66
2023/04/08 06:04:27;;;;;;;27.13;16.33;;;;;;;6.32;100.00;102578.81;5047863;28;20309;-66
2023/04/08 06:06:52;;;;;;;26.27;16.93;;;;;;;6.39;100.00;102579.31;5049128;28;20194;-66
2023/04/08 06:09:17;;;;;;;27.07;16.80;;;;;;;6.38;100.00;102579.22;5031648;28;20189;-65
2023/04/08 06:11:43;;;;;;;26.83;15.20;;;;;;;6.40;100.00;102575.97;5049750;28;20186;-66
2023/04/08 06:14:08;;;;;;;26.10;16.77;;;;;;;6.38;100.00;102584.28;5048635;28;20581;-65
2023/04/08 06:16:34;;;;;;;25.13;15.90;;;;;;;6.37;100.00;102582.53;5048754;28;20255;-67
2023/04/08 06:18:59;;;;;;;28.77;16.47;;;;;;;6.45;100.00;102594.94;5049265;28;20202;-66
2023/04/08 06:21:25;;;;;;;26.07;15.87;;;;;;;6.40;100.00;102596.31;5049254;28;20220;-66
2023/04/08 06:23:50;;;;;;;28.37;17.63;;;;;;;6.43;100.00;102591.44;5045636;28;20543;-65
2023/04/08 06:26:16;;;;;;;28.60;17.40;;;;;;;6.40;100.00;102595.47;5049157;28;20308;-65
2023/04/08 06:28:42;;;;;;;33.33;17.80;;;;;;;6.47;100.00;102595.06;5049089;28;20248;-65
2023/04/08 06:31:08;;;;;;;25.50;16.40;;;;;;;6.59;100.00;102594.16;5048015;28;20233;-67
2023/04/08 06:33:33;;;;;;;25.97;16.33;;;;;;;6.57;100.00;102589.75;5047729;28;20255;-67
2023/04/08 06:36:06;;;;;;;28.23;17.63;;;;;;;6.54;100.00;102597.22;5048494;28;20333;-67
2023/04/08 06:38:33;;;;;;;22.50;15.47;;;;;;;6.63;100.00;102591.03;5014870;28;20194;-66
2023/04/08 06:41:05;;;;;;;25.67;16.57;;;;;;;6.59;100.00;102595.84;5047249;28;20559;-66
2023/04/08 06:43:31;;;;;;;26.87;17.27;;;;;;;6.65;100.00;102597.13;5048491;28;20351;-66
2023/04/08 06:45:57;;;;;;;23.73;16.37;;;;;;;6.75;100.00;102590.91;5048203;28;20895;-65
2023/04/08 06:48:27;;;;;;;26.67;16.03;;;;;;;6.78;100.00;102594.53;5044978;28;20655;-65
2023/04/08 06:50:57;;;;;;;26.30;15.43;;;;;;;6.84;100.00;102600.03;5046266;28;20256;-66
2023/04/08 06:53:23;;;;;;;25.50;15.40;;;;;;;6.90;100.00;102602.06;5048692;28;20202;-65
2023/04/08 06:55:49;;;;;;;28.17;15.87;;;;;;;6.94;100.00;102604.00;5043925;28;20248;-65
2023/04/08 06:58:14;;;;;;;24.37;16.17;;;;;;;6.86;100.00;102607.75;5044859;28;20223;-65
2023/04/08 07:00:41;;;;;;;25.50;15.93;;;;;;;6.98;100.00;102604.31;5048539;28;20197;-65
2023/04/08 07:03:06;;;;;;;28.17;15.97;;;;;;;7.02;100.00;102606.25;5047613;28;20193;-65
2023/04/08 07:05:34;;;;;;;32.37;16.33;;;;;;;6.99;100.00;102608.59;5047275;28;20292;-65
2023/04/08 07:08:00;;;;;;;33.20;18.57;;;;;;;6.90;100.00;102607.13;5048406;28;20214;-65
2023/04/08 07:10:25;;;;;;;30.87;16.90;;;;;;;6.97;100.00;102612.75;5048614;28;20956;-65
2023/04/08 07:12:51;;;;;;;30.27;16.10;;;;;;;6.96;100.00;102613.50;5047092;28;20553;-65
2023/04/08 07:15:16;;;;;;;31.73;17.47;;;;;;;6.93;100.00;102615.88;5048409;28;20951;-65
2023/04/08 07:17:42;;;;;;;27.07;16.80;;;;;;;6.93;100.00;102615.88;5048436;28;20212;-65
2023/04/08 07:20:08;;;;;;;29.20;16.97;;;;;;;7.01;100.00;102619.75;5047989;28;20197;-65
2023/04/08 07:22:34;;;;;;;23.23;16.00;;;;;;;7.05;100.00;102626.81;5028643;28;20197;-65
2023/04/08 07:24:59;;;;;;;22.53;15.03;;;;;;;6.97;100.00;102628.00;5047556;28;20225;-65
2023/04/08 07:27:25;;;;;;;26.90;15.23;;;;;;;7.08;100.00;102632.09;5048245;28;20209;-66
2023/04/08 07:29:53;;;;;;;24.33;13.97;;;;;;;7.10;100.00;102629.66;5047423;28;20285;-66
2023/04/08 07:32:19;;;;;;;20.50;13.20;;;;;;;7.06;100.00;102633.69;5048362;28;20289;-65
2023/04/08 07:34:45;;;;;;;20.60;14.17;;;;;;;7.10;100.00;102640.69;5030543;28;20205;-66
2023/04/08 07:37:11;;;;;;;19.10;13.37;;;;;;;7.14;100.00;102639.25;5047667;28;20214;-65
2023/04/08 07:39:36;;;;;;;23.13;14.40;;;;;;;7.14;100.00;102645.19;5047635;28;20190;-65
2023/04/08 07:42:02;;;;;;;22.43;13.33;;;;;;;7.12;100.00;102656.97;5047668;28;20201;-65
2023/04/08 07:44:27;;;;;;;21.03;13.27;;;;;;;7.14;100.00;102649.44;5048137;28;20193;-65
2023/04/08 07:46:52;;;;;;;23.43;15.33;;;;;;;7.08;100.00;102660.09;5045257;28;20185;-65
2023/04/08 07:49:18;;;;;;;24.73;14.37;;;;;;;7.16;100.00;102663.13;5048100;28;20247;-66
2023/04/08 07:51:43;;;;;;;24.63;14.77;;;;;;;7.14;100.00;102660.47;5048340;28;20189;-66
2023/04/08 07:54:11;;;;;;;27.03;15.30;;;;;;;7.09;100.00;102664.41;5051046;28;20228;-64
2023/04/08 07:56:39;;;;;;;27.93;15.17;;;;;;;7.11;100.00;102664.50;5051178;28;20671;-65
2023/04/08 07:59:05;;;;;;;27.10;15.27;;;;;;;7.06;100.00;102658.25;5051482;28;20194;-65
2023/04/08 08:01:33;;;;;;;23.53;15.03;;;;;;;7.09;100.00;102666.97;5048476;28;20539;-65
2023/04/08 08:03:59;;;;;;;27.33;14.47;;;;;;;7.12;100.00;102666.25;5051599;28;20201;-65
2023/04/08 08:06:26;;;;;;;26.73;14.30;;;;;;;7.08;100.00;102665.22;5051222;28;20205;-65
2023/04/08 08:08:52;;;;;;;26.27;14.60;;;;;;;7.10;100.00;102668.72;5051876;28;20190;-65
2023/04/08 08:11:17;;;;;;;26.67;14.77;;;;;;;7.11;100.00;102672.16;5034197;28;20682;-65
2023/04/08 08:13:43;;;;;;;22.17;13.67;;;;;;;7.16;100.00;102666.56;5047394;28;20613;-64
2023/04/08 08:16:10;;;;;;;22.70;13.63;;;;;;;7.08;100.00;102666.84;5051479;28;20232;-65
2023/04/08 08:18:36;;;;;;;23.33;14.57;;;;;;;7.16;100.00;102665.69;5051918;28;20272;-65
2023/04/08 08:21:02;;;;;;;23.17;14.07;;;;;;;7.11;100.00;102672.16;5051575;28;20198;-64
2023/04/08 08:23:28;;;;;;;25.10;14.87;;;;;;;7.04;100.00;102675.97;5047276;28;20202;-64
2023/04/08 08:26:00;;;;;;;26.10;14.13;;;;;;;7.09;100.00;102681.38;5050795;28;20220;-64
2023/04/08 08:28:26;;;;;;;23.77;14.10;;;;;;;7.15;100.00;102675.00;5050713;28;20189;-65
2023/04/08 08:30:51;;;;;;;24.80;14.67;;;;;;;7.25;100.00;102674.78;5032059;28;20198;-65
2023/04/08 08:33:17;;;;;;;23.40;14.60;;;;;;;7.38;100.00;102673.88;5050918;28;20198;-67
2023/04/08 08:35:42;;;;;;;27.97;14.83;;;;;;;7.32;100.00;102678.59;5050617;28;20294;-67
2023/04/08 08:38:07;;;;;;;25.33;14.20;;;;;;;7.45;100.00;102681.97;5051233;28;20240;-67
2023/04/08 08:40:33;;;;;;;24.43;14.37;;;;;;;7.40;100.00;102688.47;5050798;28;20186;-67
2023/04/08 08:43:00;;;;;;;24.40;14.53;;;;;;;7.42;100.00;102688.56;5049053;28;20733;-66
2023/04/08 08:45:25;;;;;;;28.60;15.50;;;;;;;7.42;100.00;102693.66;5050472;28;20223;-66
2023/04/08 08:47:51;;;;;;;27.53;14.87;;;;;;;7.52;100.00;102694.31;5032700;28;20194;-66
2023/04/08 08:50:17;;;;;;;25.97;15.13;;;;;;;7.38;100.00;102690.00;5050354;28;20284;-66
2023/04/08 08:52:50;;;;;;;25.73;14.43;;;;;;;7.48;100.00;102691.47;5046256;28;20197;-66
2023/04/08 08:55:18;;;;;;;24.83;13.87;;;;;;;7.46;100.00;102695.63;5050556;28;20205;-66
2023/04/08 08:57:44;;;;;;;28.53;16.07;;;;;;;7.43;100.00;102701.41;5046220;28;20283;-66
2023/04/08 09:00:10;;;;;;;24.13;14.83;;;;;;;7.48;100.00;102700.00;5049433;28;20691;-67
2023/04/08 09:02:35;;;;;;;22.70;14.33;;;;;;;7.51;100.00;102702.72;5046516;28;20186;-66
2023/04/08 09:05:03;;;;;;;25.27;15.10;;;;;;;7.49;100.00;102706.88;5049287;28;20710;-66
2023/04/08 09:07:31;;;;;;;25.00;14.10;;;;;;;7.56;100.00;102713.22;5048517;28;20194;-66
2023/04/08 09:09:58;;;;;;;21.43;13.90;;;;;;;7.61;100.00;102709.28;5029483;28;20536;-65
2023/04/08 09:12:24;;;;;;;21.20;12.67;;;;;;;7.70;100.00;102713.25;5032725;28;20513;-66
2023/04/08 09:14:50;;;;;;;22.97;14.23;;;;;;;7.60;100.00;102712.63;5049383;28;20231;-66
2023/04/08 09:17:32;;;;;;;22.23;12.90;;;;;;;7.65;100.00;102717.19;5050207;28;20205;-66
2023/04/08 09:20:10;;;;;;;21.10;12.90;;;;;;;7.61;100.00;102722.03;5047751;28;20205;-66
2023/04/08 09:22:56;;;;;;;22.53;13.07;;;;;;;7.67;100.00;102720.75;5050208;28;20763;-67
2023/04/08 09:25:26;;;;;;;19.00;12.47;;;;;;;7.65;100.00;102716.34;5046257;28;20245;-66
2023/04/08 09:27:52;;;;;;;21.47;12.33;;;;;;;7.72;100.00;102726.09;5041290;28;20261;-65
2023/04/08 09:30:19;;;;;;;22.40;12.97;;;;;;;7.81;100.00;102725.00;5049575;28;20189;-66
2023/04/08 09:32:56;;;;;;;19.20;12.47;;;;;;;7.76;100.00;102725.50;5032441;28;20194;-66
2023/04/08 09:35:23;;;;;;;20.53;12.23;;;;;;;7.78;100.00;102724.81;5044216;28;20527;-65
2023/04/08 09:37:49;;;;;;;22.47;12.97;;;;;;;7.75;100.00;102728.84;5032003;28;20232;-66
2023/04/08 09:40:16;;;;;;;20.17;12.30;;;;;;;7.80;100.00;102730.91;5049753;28;20651;-66
2023/04/08 09:42:52;;;;;;;17.90;12.20;;;;;;;7.85;100.00;102734.59;5049364;28;20201;-65
2023/04/08 09:45:18;;;;;;;21.00;12.37;;;;;;;7.85;100.00;102733.72;5028295;28;20644;-66
2023/04/08 09:47:56;;;;;;;20.13;12.60;;;;;;;7.84;100.00;102734.50;5048609;28;20281;-66
2023/04/08 09:50:31;;;;;;;21.30;12.20;;;;;;;7.91;100.00;102726.41;5029032;28;20186;-66
2023/04/08 09:53:04;;;;;;;21.70;12.57;;;;;;;7.94;100.00;102731.72;5049084;28;20197;-66
2023/04/08 09:55:35;;;;;;;19.93;12.93;;;;;;;8.00;100.00;102735.50;5043166;28;20213;-66
2023/04/08 09:58:00;;;;;;;21.20;12.67;;;;;;;7.93;100.00;102738.47;5046457;28;20218;-65
2023/04/08 10:00:34;;;;;;;18.90;12.53;;;;;;;7.98;100.00;102737.09;5049621;28;20209;-66
2023/04/08 10:03:03;;;;;;;23.60;13.43;;;;;;;7.86;100.00;102735.47;5030889;28;20197;-66
2023/04/08 10:05:30;;;;;;;23.77;13.43;;;;;;;7.87;100.00;102733.00;5024764;28;20236;-66
2023/04/08 10:07:56;;;;;;;18.87;12.90;;;;;;;8.02;100.00;102738.16;5044189;28;20194;-66
2023/04/08 10:10:23;;;;;;;24.27;14.17;;;;;;;7.95;100.00;102736.91;5027471;28;20229;-66
2023/04/08 10:12:50;;;;;;;22.77;13.17;;;;;;;7.91;100.00;102737.50;5044489;28;20186;-66
2023/04/08 10:15:24;;;;;;;24.60;14.57;;;;;;;7.97;100.00;102742.13;5045781;28;20709;-66
2023/04/08 10:17:51;;;;;;;21.80;13.83;;;;;;;8.01;100.00;102741.50;5044961;28;20228;-68
2023/04/08 10:20:35;;;;;;;22.77;14.00;;;;;;;8.00;100.00;102742.28;5047443;28;20200;-68
2023/04/08 10:23:08;;;;;;;26.60;14.43;;;;;;;7.95;100.00;102741.13;5045722;28;20599;-67
2023/04/08 10:25:40;;;;;;;23.13;14.30;;;;;;;8.10;100.00;102736.94;5047630;28;20209;-67
2023/04/08 10:28:11;;;;;;;21.40;14.00;;;;;;;8.15;100.00;102738.97;5045052;28;20185;-67
2023/04/08 10:30:37;;;;;;;21.87;13.80;;;;;;;8.26;100.00;102735.44;5047518;28;20905;-66
2023/04/08 10:33:11;;;;;;;24.30;14.47;;;;;;;8.25;100.00;102732.78;5046485;28;20207;-67
2023/04/08 10:35:42;;;;;;;25.37;14.80;;;;;;;8.21;100.00;102729.16;5025892;28;20218;-66
2023/04/08 10:38:08;;;;;;;23.23;14.73;;;;;;;8.11;100.00;102738.72;5048775;28;20217;-66
2023/04/08 10:40:41;;;;;;;25.77;15.03;;;;;;;8.17;100.00;102744.16;5048153;28;20704;-66
2023/04/08 10:43:09;;;;;;;23.23;14.33;;;;;;;8.22;100.00;102746.25;5046451;28;20251;-66
2023/04/08 10:45:34;;;;;;;28.50;15.63;;;;;;;8.23;100.00;102747.09;5047140;28;20282;-67
2023/04/08 10:48:23;;;;;;;24.03;15.17;;;;;;;8.15;100.00;102738.13;5048802;28;20189;-65
2023/04/08 10:50:56;;;;;;;29.10;18.00;;;;;;;8.15;100.00;102738.13;5045860;28;20186;-66
2023/04/08 10:53:34;;;;;;;25.63;16.80;;;;;;;8.29;100.00;102737.28;5045603;28;20276;-67
2023/04/08 10:56:14;;;;;;;25.30;15.97;;;;;;;8.30;100.00;102736.50;5042988;28;20213;-66
2023/04/08 10:58:51;;;;;;;27.33;15.83;;;;;;;8.29;100.00;102733.03;5045651;28;20327;-67
2023/04/08 11:01:17;;;;;;;26.50;15.70;;;;;;;8.32;100.00;102735.78;5048605;28;20595;-66
2023/04/08 11:03:42;;;;;;;22.27;14.47;;;;;;;8.31;100.00;102738.25;5044130;28;20186;-65
2023/04/08 11:06:08;;;;;;;23.17;14.63;;;;;;;8.23;100.00;102742.91;5048123;28;20697;-66
2023/04/08 11:08:35;;;;;;;25.80;15.17;;;;;;;8.26;100.00;102738.00;5048674;28;20189;-66
2023/04/08 11:11:01;;;;;;;25.43;15.77;;;;;;;8.25;100.00;102735.34;5027887;28;20198;-65